sensor_id;sensor_type;location;lat;lon;timestamp;P1;durP1;ratioP1;P2;durP2;ratioP2
18596;SDS011;9428;50.950;6.912;2023-06-24T00:00:20;10.10;;;7.68;;
18596;SDS011;9428;50.950;6.912;2023-06-24T00:03:07;9.85;;;6.82;;
18596;SDS011;9428;50.950;6.912;2023-06-24T00:05:55;11.00;;;7.00;;
18596;SDS011;9428;50.950;6.912;2023-06-24T00:08:42;7.82;;;6.35;;
18596;SDS011;9428;50.950;6.912;2023-06-24T00:11:30;9.60;;;6.70;;
18596;SDS011;9428;50.950;6.912;2023-06-24T00:14:17;12.20;;;7.45;;
18596;SDS011;9428;50.950;6.912;2023-06-24T00:17:08;8.68;;;6.40;;
18596;SDS011;9428;50.950;6.912;2023-06-24T00:19:56;8.40;;;6.90;;
18596;SDS011;9428;50.950;6.912;2023-06-24T00:22:43;12.00;;;7.97;;
18596;SDS011;9428;50.950;6.912;2023-06-24T00:25:34;8.77;;;6.78;;
18596;SDS011;9428;50.950;6.912;2023-06-24T00:28:21;7.18;;;6.35;;
18596;SDS011;9428;50.950;6.912;2023-06-24T00:31:09;8.57;;;6.40;;
18596;SDS011;9428;50.950;6.912;2023-06-24T00:33:58;9.45;;;7.60;;
18596;SDS011;9428;50.950;6.912;2023-06-24T00:36:45;8.20;;;6.43;;
18596;SDS011;9428;50.950;6.912;2023-06-24T00:39:33;8.43;;;7.05;;
18596;SDS011;9428;50.950;6.912;2023-06-24T00:42:20;9.77;;;7.40;;
18596;SDS011;9428;50.950;6.912;2023-06-24T00:45:10;8.90;;;7.35;;
18596;SDS011;9428;50.950;6.912;2023-06-24T00:47:58;9.30;;;7.57;;
18596;SDS011;9428;50.950;6.912;2023-06-24T00:50:47;10.20;;;7.65;;
18596;SDS011;9428;50.950;6.912;2023-06-24T00:53:34;11.07;;;7.65;;
18596;SDS011;9428;50.950;6.912;2023-06-24T00:56:22;14.07;;;8.95;;
18596;SDS011;9428;50.950;6.912;2023-06-24T00:59:14;12.02;;;9.52;;
18596;SDS011;9428;50.950;6.912;2023-06-24T01:02:03;15.55;;;8.32;;
18596;SDS011;9428;50.950;6.912;2023-06-24T01:04:50;11.63;;;7.93;;
18596;SDS011;9428;50.950;6.912;2023-06-24T01:07:39;14.77;;;8.73;;
18596;SDS011;9428;50.950;6.912;2023-06-24T01:10:27;11.10;;;7.72;;
18596;SDS011;9428;50.950;6.912;2023-06-24T01:13:15;16.15;;;8.57;;
18596;SDS011;9428;50.950;6.912;2023-06-24T01:16:03;10.52;;;7.38;;
18596;SDS011;9428;50.950;6.912;2023-06-24T01:18:55;15.00;;;7.88;;
18596;SDS011;9428;50.950;6.912;2023-06-24T01:21:49;14.95;;;8.40;;
18596;SDS011;9428;50.950;6.912;2023-06-24T01:24:58;10.02;;;7.75;;
18596;SDS011;9428;50.950;6.912;2023-06-24T01:28:01;13.05;;;8.18;;
18596;SDS011;9428;50.950;6.912;2023-06-24T01:34:13;13.73;;;8.70;;
18596;SDS011;9428;50.950;6.912;2023-06-24T01:37:08;13.20;;;9.48;;
18596;SDS011;9428;50.950;6.912;2023-06-24T01:40:01;12.48;;;9.20;;
18596;SDS011;9428;50.950;6.912;2023-06-24T01:42:55;12.25;;;9.30;;
18596;SDS011;9428;50.950;6.912;2023-06-24T01:45:47;15.25;;;9.70;;
18596;SDS011;9428;50.950;6.912;2023-06-24T01:48:38;12.55;;;9.18;;
18596;SDS011;9428;50.950;6.912;2023-06-24T01:51:29;14.63;;;9.65;;
18596;SDS011;9428;50.950;6.912;2023-06-24T01:54:18;11.48;;;9.40;;
18596;SDS011;9428;50.950;6.912;2023-06-24T01:57:08;11.20;;;8.85;;
18596;SDS011;9428;50.950;6.912;2023-06-24T01:59:58;14.38;;;8.88;;
18596;SDS011;9428;50.950;6.912;2023-06-24T02:02:46;12.00;;;8.68;;
18596;SDS011;9428;50.950;6.912;2023-06-24T02:05:35;12.85;;;9.25;;
18596;SDS011;9428;50.950;6.912;2023-06-24T02:08:25;10.43;;;8.70;;
18596;SDS011;9428;50.950;6.912;2023-06-24T02:11:15;16.08;;;10.35;;
18596;SDS011;9428;50.950;6.912;2023-06-24T02:14:04;15.18;;;11.68;;
18596;SDS011;9428;50.950;6.912;2023-06-24T02:16:53;13.13;;;9.77;;
18596;SDS011;9428;50.950;6.912;2023-06-24T02:19:42;15.02;;;10.63;;
18596;SDS011;9428;50.950;6.912;2023-06-24T02:22:32;12.18;;;10.73;;
18596;SDS011;9428;50.950;6.912;2023-06-24T02:25:19;13.45;;;9.60;;
18596;SDS011;9428;50.950;6.912;2023-06-24T02:28:07;14.77;;;9.95;;
18596;SDS011;9428;50.950;6.912;2023-06-24T02:30:55;15.70;;;10.00;;
18596;SDS011;9428;50.950;6.912;2023-06-24T02:33:44;12.02;;;9.50;;
18596;SDS011;9428;50.950;6.912;2023-06-24T02:36:32;15.57;;;9.50;;
18596;SDS011;9428;50.950;6.912;2023-06-24T02:39:20;12.38;;;9.00;;
18596;SDS011;9428;50.950;6.912;2023-06-24T02:42:08;12.88;;;8.57;;
18596;SDS011;9428;50.950;6.912;2023-06-24T02:44:55;14.55;;;9.07;;
18596;SDS011;9428;50.950;6.912;2023-06-24T02:47:43;13.57;;;8.75;;
18596;SDS011;9428;50.950;6.912;2023-06-24T02:50:32;13.23;;;9.38;;
18596;SDS011;9428;50.950;6.912;2023-06-24T02:53:20;14.07;;;9.15;;
18596;SDS011;9428;50.950;6.912;2023-06-24T02:56:09;10.90;;;8.57;;
18596;SDS011;9428;50.950;6.912;2023-06-24T02:58:56;11.70;;;8.85;;
18596;SDS011;9428;50.950;6.912;2023-06-24T03:01:43;12.43;;;8.45;;
18596;SDS011;9428;50.950;6.912;2023-06-24T03:04:31;15.50;;;9.35;;
18596;SDS011;9428;50.950;6.912;2023-06-24T03:07:19;13.10;;;9.82;;
18596;SDS011;9428;50.950;6.912;2023-06-24T03:10:07;11.95;;;8.90;;
18596;SDS011;9428;50.950;6.912;2023-06-24T03:12:57;15.23;;;10.40;;
18596;SDS011;9428;50.950;6.912;2023-06-24T03:15:44;11.07;;;9.30;;
18596;SDS011;9428;50.950;6.912;2023-06-24T03:18:32;15.63;;;9.30;;
18596;SDS011;9428;50.950;6.912;2023-06-24T03:21:19;14.82;;;10.00;;
18596;SDS011;9428;50.950;6.912;2023-06-24T03:24:06;13.77;;;8.40;;
18596;SDS011;9428;50.950;6.912;2023-06-24T03:26:53;15.75;;;9.15;;
18596;SDS011;9428;50.950;6.912;2023-06-24T03:29:43;11.15;;;8.98;;
18596;SDS011;9428;50.950;6.912;2023-06-24T03:32:31;14.48;;;8.77;;
18596;SDS011;9428;50.950;6.912;2023-06-24T03:35:21;12.45;;;8.80;;
18596;SDS011;9428;50.950;6.912;2023-06-24T03:38:09;9.05;;;7.68;;
18596;SDS011;9428;50.950;6.912;2023-06-24T03:40:57;11.95;;;8.23;;
18596;SDS011;9428;50.950;6.912;2023-06-24T03:43:44;10.20;;;7.30;;
18596;SDS011;9428;50.950;6.912;2023-06-24T03:46:32;14.52;;;9.95;;
18596;SDS011;9428;50.950;6.912;2023-06-24T03:49:20;10.85;;;8.27;;
18596;SDS011;9428;50.950;6.912;2023-06-24T03:52:07;10.13;;;8.52;;
18596;SDS011;9428;50.950;6.912;2023-06-24T03:54:54;13.13;;;8.75;;
18596;SDS011;9428;50.950;6.912;2023-06-24T03:57:41;10.80;;;8.32;;
18596;SDS011;9428;50.950;6.912;2023-06-24T04:00:28;11.30;;;7.78;;
18596;SDS011;9428;50.950;6.912;2023-06-24T04:03:17;11.70;;;8.10;;
18596;SDS011;9428;50.950;6.912;2023-06-24T04:06:04;10.15;;;8.15;;
18596;SDS011;9428;50.950;6.912;2023-06-24T04:08:51;11.15;;;7.97;;
18596;SDS011;9428;50.950;6.912;2023-06-24T04:11:39;11.07;;;8.18;;
18596;SDS011;9428;50.950;6.912;2023-06-24T04:14:26;11.82;;;8.88;;
18596;SDS011;9428;50.950;6.912;2023-06-24T04:17:13;9.20;;;8.20;;
18596;SDS011;9428;50.950;6.912;2023-06-24T04:20:02;11.60;;;8.90;;
18596;SDS011;9428;50.950;6.912;2023-06-24T04:22:52;14.48;;;9.13;;
18596;SDS011;9428;50.950;6.912;2023-06-24T04:25:39;11.55;;;8.45;;
18596;SDS011;9428;50.950;6.912;2023-06-24T04:28:27;14.20;;;8.77;;
18596;SDS011;9428;50.950;6.912;2023-06-24T04:31:15;10.98;;;8.10;;
18596;SDS011;9428;50.950;6.912;2023-06-24T04:34:02;15.32;;;8.85;;
18596;SDS011;9428;50.950;6.912;2023-06-24T04:36:52;11.38;;;8.48;;
18596;SDS011;9428;50.950;6.912;2023-06-24T04:39:39;12.98;;;8.35;;
18596;SDS011;9428;50.950;6.912;2023-06-24T04:42:26;12.40;;;8.13;;
18596;SDS011;9428;50.950;6.912;2023-06-24T04:45:14;11.05;;;8.25;;
18596;SDS011;9428;50.950;6.912;2023-06-24T04:48:01;11.90;;;9.20;;
18596;SDS011;9428;50.950;6.912;2023-06-24T04:50:48;11.50;;;8.02;;
18596;SDS011;9428;50.950;6.912;2023-06-24T04:53:37;11.90;;;8.15;;
18596;SDS011;9428;50.950;6.912;2023-06-24T04:56:25;10.85;;;8.52;;
18596;SDS011;9428;50.950;6.912;2023-06-24T04:59:12;12.55;;;8.80;;
18596;SDS011;9428;50.950;6.912;2023-06-24T05:01:59;11.80;;;8.90;;
18596;SDS011;9428;50.950;6.912;2023-06-24T05:04:46;14.82;;;8.02;;
18596;SDS011;9428;50.950;6.912;2023-06-24T05:07:33;14.60;;;7.82;;
18596;SDS011;9428;50.950;6.912;2023-06-24T05:10:22;10.00;;;8.70;;
18596;SDS011;9428;50.950;6.912;2023-06-24T05:13:09;11.70;;;7.97;;
18596;SDS011;9428;50.950;6.912;2023-06-24T05:15:56;12.13;;;8.35;;
18596;SDS011;9428;50.950;6.912;2023-06-24T05:18:44;12.48;;;8.25;;
18596;SDS011;9428;50.950;6.912;2023-06-24T05:21:31;12.98;;;8.63;;
18596;SDS011;9428;50.950;6.912;2023-06-24T05:24:18;12.02;;;7.90;;
18596;SDS011;9428;50.950;6.912;2023-06-24T05:27:07;10.30;;;7.75;;
18596;SDS011;9428;50.950;6.912;2023-06-24T05:29:54;11.10;;;8.23;;
18596;SDS011;9428;50.950;6.912;2023-06-24T05:32:42;14.25;;;8.18;;
18596;SDS011;9428;50.950;6.912;2023-06-24T05:35:29;12.27;;;8.90;;
18596;SDS011;9428;50.950;6.912;2023-06-24T05:38:16;13.40;;;7.82;;
18596;SDS011;9428;50.950;6.912;2023-06-24T05:41:03;10.00;;;7.10;;
18596;SDS011;9428;50.950;6.912;2023-06-24T05:44:00;11.63;;;7.50;;
18596;SDS011;9428;50.950;6.912;2023-06-24T05:46:48;10.57;;;8.13;;
18596;SDS011;9428;50.950;6.912;2023-06-24T05:49:35;13.85;;;7.93;;
18596;SDS011;9428;50.950;6.912;2023-06-24T05:52:23;14.73;;;8.75;;
18596;SDS011;9428;50.950;6.912;2023-06-24T05:55:10;15.95;;;8.73;;
18596;SDS011;9428;50.950;6.912;2023-06-24T05:57:59;13.40;;;8.23;;
18596;SDS011;9428;50.950;6.912;2023-06-24T06:00:47;11.10;;;8.30;;
18596;SDS011;9428;50.950;6.912;2023-06-24T06:03:34;13.32;;;8.02;;
18596;SDS011;9428;50.950;6.912;2023-06-24T06:06:22;11.80;;;7.93;;
18596;SDS011;9428;50.950;6.912;2023-06-24T06:09:09;12.93;;;7.72;;
18596;SDS011;9428;50.950;6.912;2023-06-24T06:11:56;9.95;;;8.15;;
18596;SDS011;9428;50.950;6.912;2023-06-24T06:14:43;13.95;;;8.32;;
18596;SDS011;9428;50.950;6.912;2023-06-24T06:17:33;12.68;;;8.15;;
18596;SDS011;9428;50.950;6.912;2023-06-24T06:20:20;10.93;;;7.70;;
18596;SDS011;9428;50.950;6.912;2023-06-24T06:23:07;10.90;;;8.52;;
18596;SDS011;9428;50.950;6.912;2023-06-24T06:25:54;14.05;;;8.55;;
18596;SDS011;9428;50.950;6.912;2023-06-24T06:28:42;18.38;;;9.15;;
18596;SDS011;9428;50.950;6.912;2023-06-24T06:31:29;10.20;;;7.30;;
18596;SDS011;9428;50.950;6.912;2023-06-24T06:34:18;11.57;;;8.55;;
18596;SDS011;9428;50.950;6.912;2023-06-24T06:37:05;16.00;;;8.80;;
18596;SDS011;9428;50.950;6.912;2023-06-24T06:39:52;13.13;;;8.18;;
18596;SDS011;9428;50.950;6.912;2023-06-24T06:42:39;13.55;;;8.50;;
18596;SDS011;9428;50.950;6.912;2023-06-24T06:45:27;11.52;;;7.75;;
18596;SDS011;9428;50.950;6.912;2023-06-24T06:48:14;9.93;;;7.97;;
18596;SDS011;9428;50.950;6.912;2023-06-24T06:51:03;11.88;;;8.00;;
18596;SDS011;9428;50.950;6.912;2023-06-24T06:53:50;11.00;;;7.13;;
18596;SDS011;9428;50.950;6.912;2023-06-24T06:56:37;15.63;;;7.72;;
18596;SDS011;9428;50.950;6.912;2023-06-24T06:59:25;12.18;;;7.13;;
18596;SDS011;9428;50.950;6.912;2023-06-24T07:02:12;12.73;;;6.60;;
18596;SDS011;9428;50.950;6.912;2023-06-24T07:04:59;9.35;;;6.88;;
18596;SDS011;9428;50.950;6.912;2023-06-24T07:07:48;11.52;;;6.93;;
18596;SDS011;9428;50.950;6.912;2023-06-24T07:10:36;9.23;;;6.57;;
18596;SDS011;9428;50.950;6.912;2023-06-24T07:13:23;10.75;;;6.45;;
18596;SDS011;9428;50.950;6.912;2023-06-24T07:16:10;9.93;;;6.55;;
18596;SDS011;9428;50.950;6.912;2023-06-24T07:18:57;8.80;;;6.55;;
18596;SDS011;9428;50.950;6.912;2023-06-24T07:21:44;12.20;;;6.43;;
18596;SDS011;9428;50.950;6.912;2023-06-24T07:24:33;11.98;;;5.85;;
18596;SDS011;9428;50.950;6.912;2023-06-24T07:27:20;9.25;;;5.80;;
18596;SDS011;9428;50.950;6.912;2023-06-24T07:30:08;8.95;;;5.93;;
18596;SDS011;9428;50.950;6.912;2023-06-24T07:32:55;7.68;;;5.35;;
18596;SDS011;9428;50.950;6.912;2023-06-24T07:35:42;8.23;;;5.55;;
18596;SDS011;9428;50.950;6.912;2023-06-24T07:38:29;10.45;;;5.78;;
18596;SDS011;9428;50.950;6.912;2023-06-24T07:41:18;8.98;;;6.20;;
18596;SDS011;9428;50.950;6.912;2023-06-24T07:44:05;8.90;;;5.70;;
18596;SDS011;9428;50.950;6.912;2023-06-24T07:46:52;11.07;;;6.10;;
18596;SDS011;9428;50.950;6.912;2023-06-24T07:49:40;10.43;;;6.40;;
18596;SDS011;9428;50.950;6.912;2023-06-24T07:52:27;11.07;;;5.55;;
18596;SDS011;9428;50.950;6.912;2023-06-24T07:55:14;10.38;;;5.15;;
18596;SDS011;9428;50.950;6.912;2023-06-24T07:58:03;12.25;;;6.07;;
18596;SDS011;9428;50.950;6.912;2023-06-24T08:00:50;9.23;;;6.35;;
18596;SDS011;9428;50.950;6.912;2023-06-24T08:03:37;10.40;;;5.65;;
18596;SDS011;9428;50.950;6.912;2023-06-24T08:06:24;15.00;;;7.10;;
18596;SDS011;9428;50.950;6.912;2023-06-24T08:09:12;12.75;;;6.80;;
18596;SDS011;9428;50.950;6.912;2023-06-24T08:11:59;14.68;;;6.38;;
18596;SDS011;9428;50.950;6.912;2023-06-24T08:14:48;10.57;;;6.47;;
18596;SDS011;9428;50.950;6.912;2023-06-24T08:17:35;11.25;;;6.32;;
18596;SDS011;9428;50.950;6.912;2023-06-24T08:20:23;9.30;;;5.95;;
18596;SDS011;9428;50.950;6.912;2023-06-24T08:23:10;7.57;;;5.70;;
18596;SDS011;9428;50.950;6.912;2023-06-24T08:25:57;10.50;;;7.05;;
18596;SDS011;9428;50.950;6.912;2023-06-24T08:28:46;11.43;;;6.15;;
18596;SDS011;9428;50.950;6.912;2023-06-24T08:31:35;12.35;;;6.07;;
18596;SDS011;9428;50.950;6.912;2023-06-24T08:34:22;8.25;;;5.80;;
18596;SDS011;9428;50.950;6.912;2023-06-24T08:37:09;9.38;;;6.03;;
18596;SDS011;9428;50.950;6.912;2023-06-24T08:39:57;10.02;;;6.25;;
18596;SDS011;9428;50.950;6.912;2023-06-24T08:42:44;8.82;;;6.00;;
18596;SDS011;9428;50.950;6.912;2023-06-24T08:45:31;15.18;;;6.90;;
18596;SDS011;9428;50.950;6.912;2023-06-24T08:48:20;9.38;;;6.53;;
18596;SDS011;9428;50.950;6.912;2023-06-24T08:51:07;9.20;;;6.40;;
18596;SDS011;9428;50.950;6.912;2023-06-24T08:53:55;10.30;;;6.90;;
18596;SDS011;9428;50.950;6.912;2023-06-24T08:56:44;11.65;;;5.85;;
18596;SDS011;9428;50.950;6.912;2023-06-24T08:59:32;9.38;;;6.75;;
18596;SDS011;9428;50.950;6.912;2023-06-24T09:02:20;10.88;;;6.93;;
18596;SDS011;9428;50.950;6.912;2023-06-24T09:05:09;10.02;;;6.82;;
18596;SDS011;9428;50.950;6.912;2023-06-24T09:07:56;16.58;;;6.97;;
18596;SDS011;9428;50.950;6.912;2023-06-24T09:10:43;10.90;;;6.78;;
18596;SDS011;9428;50.950;6.912;2023-06-24T09:13:33;8.77;;;6.18;;
18596;SDS011;9428;50.950;6.912;2023-06-24T09:16:21;12.10;;;5.85;;
18596;SDS011;9428;50.950;6.912;2023-06-24T09:19:08;9.70;;;5.85;;
18596;SDS011;9428;50.950;6.912;2023-06-24T09:22:00;13.18;;;6.55;;
18596;SDS011;9428;50.950;6.912;2023-06-24T09:24:48;9.80;;;6.22;;
18596;SDS011;9428;50.950;6.912;2023-06-24T09:27:35;12.68;;;7.13;;
18596;SDS011;9428;50.950;6.912;2023-06-24T09:30:23;10.43;;;6.03;;
18596;SDS011;9428;50.950;6.912;2023-06-24T09:33:10;10.98;;;5.97;;
18596;SDS011;9428;50.950;6.912;2023-06-24T09:35:58;9.00;;;5.80;;
18596;SDS011;9428;50.950;6.912;2023-06-24T09:38:46;11.07;;;6.30;;
18596;SDS011;9428;50.950;6.912;2023-06-24T09:41:34;6.95;;;5.32;;
18596;SDS011;9428;50.950;6.912;2023-06-24T09:44:22;9.35;;;5.90;;
18596;SDS011;9428;50.950;6.912;2023-06-24T09:47:09;7.10;;;4.40;;
18596;SDS011;9428;50.950;6.912;2023-06-24T09:49:57;8.35;;;4.95;;
18596;SDS011;9428;50.950;6.912;2023-06-24T09:52:44;11.25;;;6.03;;
18596;SDS011;9428;50.950;6.912;2023-06-24T09:55:33;5.43;;;4.38;;
18596;SDS011;9428;50.950;6.912;2023-06-24T09:58:21;9.60;;;4.93;;
18596;SDS011;9428;50.950;6.912;2023-06-24T10:01:09;8.82;;;5.28;;
18596;SDS011;9428;50.950;6.912;2023-06-24T10:03:57;6.20;;;4.65;;
18596;SDS011;9428;50.950;6.912;2023-06-24T10:06:45;9.88;;;6.57;;
18596;SDS011;9428;50.950;6.912;2023-06-24T10:09:32;9.45;;;6.05;;
18596;SDS011;9428;50.950;6.912;2023-06-24T10:12:21;8.02;;;5.55;;
18596;SDS011;9428;50.950;6.912;2023-06-24T10:15:12;7.05;;;5.47;;
18596;SDS011;9428;50.950;6.912;2023-06-24T10:18:01;9.98;;;5.20;;
18596;SDS011;9428;50.950;6.912;2023-06-24T10:20:49;8.57;;;5.00;;
18596;SDS011;9428;50.950;6.912;2023-06-24T10:23:39;8.32;;;5.47;;
18596;SDS011;9428;50.950;6.912;2023-06-24T10:26:28;8.50;;;5.80;;
18596;SDS011;9428;50.950;6.912;2023-06-24T10:29:18;8.25;;;5.00;;
18596;SDS011;9428;50.950;6.912;2023-06-24T10:32:17;6.57;;;4.40;;
18596;SDS011;9428;50.950;6.912;2023-06-24T10:35:05;6.32;;;4.20;;
18596;SDS011;9428;50.950;6.912;2023-06-24T10:37:56;6.68;;;4.57;;
18596;SDS011;9428;50.950;6.912;2023-06-24T10:40:44;5.53;;;4.80;;
18596;SDS011;9428;50.950;6.912;2023-06-24T10:43:38;5.40;;;4.50;;
18596;SDS011;9428;50.950;6.912;2023-06-24T10:46:27;6.85;;;4.47;;
18596;SDS011;9428;50.950;6.912;2023-06-24T10:49:19;5.78;;;3.40;;
18596;SDS011;9428;50.950;6.912;2023-06-24T10:52:07;7.15;;;3.97;;
18596;SDS011;9428;50.950;6.912;2023-06-24T10:54:57;7.75;;;3.38;;
18596;SDS011;9428;50.950;6.912;2023-06-24T10:57:45;4.93;;;3.50;;
18596;SDS011;9428;50.950;6.912;2023-06-24T11:00:32;3.88;;;3.00;;
18596;SDS011;9428;50.950;6.912;2023-06-24T11:03:21;3.65;;;2.78;;
18596;SDS011;9428;50.950;6.912;2023-06-24T11:06:10;4.63;;;3.35;;
18596;SDS011;9428;50.950;6.912;2023-06-24T11:09:01;8.60;;;3.70;;
18596;SDS011;9428;50.950;6.912;2023-06-24T11:11:48;6.60;;;4.00;;
18596;SDS011;9428;50.950;6.912;2023-06-24T11:14:36;5.55;;;3.85;;
18596;SDS011;9428;50.950;6.912;2023-06-24T11:17:24;4.45;;;3.30;;
18596;SDS011;9428;50.950;6.912;2023-06-24T11:20:13;5.65;;;3.40;;
18596;SDS011;9428;50.950;6.912;2023-06-24T11:23:01;4.30;;;3.10;;
18596;SDS011;9428;50.950;6.912;2023-06-24T11:25:48;5.38;;;3.38;;
18596;SDS011;9428;50.950;6.912;2023-06-24T11:28:37;5.97;;;3.60;;
18596;SDS011;9428;50.950;6.912;2023-06-24T11:31:30;10.15;;;3.70;;
18596;SDS011;9428;50.950;6.912;2023-06-24T11:34:21;4.30;;;3.60;;
18596;SDS011;9428;50.950;6.912;2023-06-24T11:37:10;6.03;;;3.55;;
18596;SDS011;9428;50.950;6.912;2023-06-24T11:40:02;8.57;;;3.90;;
18596;SDS011;9428;50.950;6.912;2023-06-24T11:42:51;5.28;;;3.38;;
18596;SDS011;9428;50.950;6.912;2023-06-24T11:45:38;5.60;;;3.97;;
18596;SDS011;9428;50.950;6.912;2023-06-24T11:48:27;5.53;;;3.65;;
18596;SDS011;9428;50.950;6.912;2023-06-24T11:51:14;6.38;;;3.40;;
18596;SDS011;9428;50.950;6.912;2023-06-24T11:54:03;4.88;;;3.80;;
18596;SDS011;9428;50.950;6.912;2023-06-24T11:56:52;6.13;;;3.78;;
18596;SDS011;9428;50.950;6.912;2023-06-24T11:59:39;4.75;;;3.45;;
18596;SDS011;9428;50.950;6.912;2023-06-24T12:02:28;6.70;;;4.00;;
18596;SDS011;9428;50.950;6.912;2023-06-24T12:05:19;5.00;;;4.20;;
18596;SDS011;9428;50.950;6.912;2023-06-24T12:08:11;5.53;;;3.75;;
18596;SDS011;9428;50.950;6.912;2023-06-24T12:11:02;5.60;;;4.20;;
18596;SDS011;9428;50.950;6.912;2023-06-24T12:13:49;5.93;;;4.22;;
18596;SDS011;9428;50.950;6.912;2023-06-24T12:16:36;8.38;;;3.95;;
18596;SDS011;9428;50.950;6.912;2023-06-24T12:19:24;5.88;;;3.92;;
18596;SDS011;9428;50.950;6.912;2023-06-24T12:22:12;6.68;;;3.65;;
18596;SDS011;9428;50.950;6.912;2023-06-24T12:24:59;8.05;;;3.65;;
18596;SDS011;9428;50.950;6.912;2023-06-24T12:27:49;5.47;;;3.90;;
18596;SDS011;9428;50.950;6.912;2023-06-24T12:30:36;6.30;;;4.10;;
18596;SDS011;9428;50.950;6.912;2023-06-24T12:33:24;6.97;;;4.57;;
18596;SDS011;9428;50.950;6.912;2023-06-24T12:36:11;4.82;;;4.20;;
18596;SDS011;9428;50.950;6.912;2023-06-24T12:38:58;6.95;;;3.97;;
18596;SDS011;9428;50.950;6.912;2023-06-24T12:41:45;6.93;;;4.05;;
18596;SDS011;9428;50.950;6.912;2023-06-24T12:44:34;6.03;;;3.92;;
18596;SDS011;9428;50.950;6.912;2023-06-24T12:47:21;5.15;;;3.80;;
18596;SDS011;9428;50.950;6.912;2023-06-24T12:50:09;5.22;;;3.95;;
18596;SDS011;9428;50.950;6.912;2023-06-24T12:52:56;6.55;;;4.10;;
18596;SDS011;9428;50.950;6.912;2023-06-24T12:55:44;7.00;;;4.00;;
18596;SDS011;9428;50.950;6.912;2023-06-24T12:58:31;9.13;;;4.70;;
18596;SDS011;9428;50.950;6.912;2023-06-24T13:01:19;5.90;;;3.80;;
18596;SDS011;9428;50.950;6.912;2023-06-24T13:04:07;8.05;;;4.30;;
18596;SDS011;9428;50.950;6.912;2023-06-24T13:06:54;5.45;;;3.92;;
18596;SDS011;9428;50.950;6.912;2023-06-24T13:09:41;5.30;;;4.20;;
18596;SDS011;9428;50.950;6.912;2023-06-24T13:12:28;5.55;;;3.95;;
18596;SDS011;9428;50.950;6.912;2023-06-24T13:15:17;7.97;;;4.13;;
18596;SDS011;9428;50.950;6.912;2023-06-24T13:18:05;7.88;;;4.20;;
18596;SDS011;9428;50.950;6.912;2023-06-24T13:20:52;6.32;;;3.65;;
18596;SDS011;9428;50.950;6.912;2023-06-24T13:23:40;6.35;;;4.28;;
18596;SDS011;9428;50.950;6.912;2023-06-24T13:26:27;5.55;;;4.10;;
18596;SDS011;9428;50.950;6.912;2023-06-24T13:29:14;4.60;;;3.70;;
18596;SDS011;9428;50.950;6.912;2023-06-24T13:32:01;6.10;;;4.13;;
18596;SDS011;9428;50.950;6.912;2023-06-24T13:34:50;5.25;;;3.90;;
18596;SDS011;9428;50.950;6.912;2023-06-24T13:37:37;5.05;;;3.90;;
18596;SDS011;9428;50.950;6.912;2023-06-24T13:40:25;8.68;;;4.40;;
18596;SDS011;9428;50.950;6.912;2023-06-24T13:43:12;5.38;;;4.25;;
18596;SDS011;9428;50.950;6.912;2023-06-24T13:45:59;5.60;;;4.15;;
18596;SDS011;9428;50.950;6.912;2023-06-24T13:48:46;5.05;;;3.47;;
18596;SDS011;9428;50.950;6.912;2023-06-24T13:51:36;9.85;;;3.50;;
18596;SDS011;9428;50.950;6.912;2023-06-24T13:54:23;6.90;;;3.20;;
18596;SDS011;9428;50.950;6.912;2023-06-24T13:57:13;6.47;;;3.53;;
18596;SDS011;9428;50.950;6.912;2023-06-24T14:00:01;4.35;;;2.92;;
18596;SDS011;9428;50.950;6.912;2023-06-24T14:02:49;7.68;;;3.78;;
18596;SDS011;9428;50.950;6.912;2023-06-24T14:05:36;5.93;;;3.72;;
18596;SDS011;9428;50.950;6.912;2023-06-24T14:08:25;8.95;;;3.30;;
18596;SDS011;9428;50.950;6.912;2023-06-24T14:11:12;5.00;;;3.40;;
18596;SDS011;9428;50.950;6.912;2023-06-24T14:13:59;3.83;;;2.75;;
18596;SDS011;9428;50.950;6.912;2023-06-24T14:16:46;5.10;;;3.25;;
18596;SDS011;9428;50.950;6.912;2023-06-24T14:19:34;5.07;;;2.85;;
18596;SDS011;9428;50.950;6.912;2023-06-24T14:22:21;7.13;;;3.65;;
18596;SDS011;9428;50.950;6.912;2023-06-24T14:25:11;5.03;;;2.53;;
18596;SDS011;9428;50.950;6.912;2023-06-24T14:27:58;4.82;;;3.08;;
18596;SDS011;9428;50.950;6.912;2023-06-24T14:30:45;4.07;;;2.83;;
18596;SDS011;9428;50.950;6.912;2023-06-24T14:33:32;4.63;;;2.97;;
18596;SDS011;9428;50.950;6.912;2023-06-24T14:36:19;5.07;;;2.92;;
18596;SDS011;9428;50.950;6.912;2023-06-24T14:39:07;4.28;;;3.20;;
18596;SDS011;9428;50.950;6.912;2023-06-24T14:41:55;3.72;;;2.58;;
18596;SDS011;9428;50.950;6.912;2023-06-24T14:44:43;5.03;;;3.40;;
18596;SDS011;9428;50.950;6.912;2023-06-24T14:47:30;5.97;;;3.05;;
18596;SDS011;9428;50.950;6.912;2023-06-24T14:50:18;3.92;;;2.90;;
18596;SDS011;9428;50.950;6.912;2023-06-24T14:53:05;4.68;;;2.95;;
18596;SDS011;9428;50.950;6.912;2023-06-24T14:55:52;3.63;;;2.80;;
18596;SDS011;9428;50.950;6.912;2023-06-24T14:58:41;4.38;;;3.00;;
18596;SDS011;9428;50.950;6.912;2023-06-24T15:01:28;3.78;;;2.40;;
18596;SDS011;9428;50.950;6.912;2023-06-24T15:04:15;3.63;;;2.65;;
18596;SDS011;9428;50.950;6.912;2023-06-24T15:07:03;3.08;;;2.33;;
18596;SDS011;9428;50.950;6.912;2023-06-24T15:09:50;4.50;;;3.05;;
18596;SDS011;9428;50.950;6.912;2023-06-24T15:12:37;2.97;;;2.50;;
18596;SDS011;9428;50.950;6.912;2023-06-24T15:15:26;2.72;;;2.30;;
18596;SDS011;9428;50.950;6.912;2023-06-24T15:18:14;4.05;;;2.75;;
18596;SDS011;9428;50.950;6.912;2023-06-24T15:21:01;3.92;;;2.38;;
18596;SDS011;9428;50.950;6.912;2023-06-24T15:23:48;3.70;;;2.70;;
18596;SDS011;9428;50.950;6.912;2023-06-24T15:26:35;4.22;;;3.10;;
18596;SDS011;9428;50.950;6.912;2023-06-24T15:29:23;4.47;;;2.83;;
18596;SDS011;9428;50.950;6.912;2023-06-24T15:32:11;3.38;;;2.55;;
18596;SDS011;9428;50.950;6.912;2023-06-24T15:35:01;6.18;;;2.65;;
18596;SDS011;9428;50.950;6.912;2023-06-24T15:37:48;3.17;;;2.55;;
18596;SDS011;9428;50.950;6.912;2023-06-24T15:40:36;4.68;;;3.17;;
18596;SDS011;9428;50.950;6.912;2023-06-24T15:43:26;6.00;;;2.55;;
18596;SDS011;9428;50.950;6.912;2023-06-24T15:46:13;6.95;;;3.38;;
18596;SDS011;9428;50.950;6.912;2023-06-24T15:49:02;3.08;;;2.38;;
18596;SDS011;9428;50.950;6.912;2023-06-24T15:51:50;3.78;;;2.97;;
18596;SDS011;9428;50.950;6.912;2023-06-24T15:54:37;4.15;;;2.72;;
18596;SDS011;9428;50.950;6.912;2023-06-24T15:57:24;3.33;;;2.15;;
18596;SDS011;9428;50.950;6.912;2023-06-24T16:00:12;3.15;;;2.67;;
18596;SDS011;9428;50.950;6.912;2023-06-24T16:03:00;4.32;;;2.78;;
18596;SDS011;9428;50.950;6.912;2023-06-24T16:05:49;6.15;;;2.70;;
18596;SDS011;9428;50.950;6.912;2023-06-24T16:08:36;5.03;;;2.88;;
18596;SDS011;9428;50.950;6.912;2023-06-24T16:11:23;3.22;;;2.70;;
18596;SDS011;9428;50.950;6.912;2023-06-24T16:14:10;6.65;;;2.80;;
18596;SDS011;9428;50.950;6.912;2023-06-24T16:16:58;3.10;;;2.50;;
18596;SDS011;9428;50.950;6.912;2023-06-24T16:19:45;3.35;;;2.78;;
18596;SDS011;9428;50.950;6.912;2023-06-24T16:22:34;3.15;;;2.50;;
18596;SDS011;9428;50.950;6.912;2023-06-24T16:25:21;3.90;;;2.60;;
18596;SDS011;9428;50.950;6.912;2023-06-24T16:28:08;4.25;;;2.95;;
18596;SDS011;9428;50.950;6.912;2023-06-24T16:30:55;5.80;;;3.22;;
18596;SDS011;9428;50.950;6.912;2023-06-24T16:33:43;3.72;;;3.22;;
18596;SDS011;9428;50.950;6.912;2023-06-24T16:36:30;5.68;;;4.75;;
18596;SDS011;9428;50.950;6.912;2023-06-24T16:39:19;4.00;;;2.67;;
18596;SDS011;9428;50.950;6.912;2023-06-24T16:42:07;3.35;;;2.63;;
18596;SDS011;9428;50.950;6.912;2023-06-24T16:44:54;2.50;;;2.17;;
18596;SDS011;9428;50.950;6.912;2023-06-24T16:47:42;3.33;;;2.60;;
18596;SDS011;9428;50.950;6.912;2023-06-24T16:50:32;3.70;;;2.42;;
18596;SDS011;9428;50.950;6.912;2023-06-24T16:53:20;4.85;;;2.72;;
18596;SDS011;9428;50.950;6.912;2023-06-24T16:56:08;2.70;;;2.50;;
18596;SDS011;9428;50.950;6.912;2023-06-24T16:58:56;13.88;;;3.22;;
18596;SDS011;9428;50.950;6.912;2023-06-24T17:01:43;5.45;;;3.03;;
18596;SDS011;9428;50.950;6.912;2023-06-24T17:04:31;5.78;;;4.65;;